createdAt,value
2018-09-26T00:00:19.305Z,930.21
2018-09-26T00:01:19.169Z,930.27
2018-09-26T00:02:19.183Z,930.29
2018-09-26T00:03:19.208Z,930.30
2018-09-26T00:04:19.255Z,930.28
2018-09-26T00:05:19.350Z,930.29
2018-09-26T00:06:19.261Z,930.34
2018-09-26T00:07:19.292Z,930.32
2018-09-26T00:08:19.291Z,930.32
2018-09-26T00:09:19.330Z,930.33
2018-09-26T00:10:19.399Z,930.35
2018-09-26T00:11:19.348Z,930.39
2018-09-26T00:12:19.346Z,930.42
2018-09-26T00:13:19.376Z,930.39
2018-09-26T00:14:19.374Z,930.47
2018-09-26T00:15:19.467Z,930.51
2018-09-26T00:16:19.399Z,930.55
2018-09-26T00:17:19.429Z,930.58
2018-09-26T00:18:19.462Z,930.59
2018-09-26T00:19:19.453Z,930.61
2018-09-26T00:20:19.479Z,930.71
2018-09-26T00:21:19.504Z,930.72
2018-09-26T00:22:19.536Z,930.80
2018-09-26T00:23:19.545Z,930.84
2018-09-26T00:24:19.534Z,930.87
2018-09-26T00:25:19.565Z,930.80
2018-09-26T00:26:19.568Z,930.88
2018-09-26T00:27:19.629Z,930.87
2018-09-26T00:28:19.605Z,930.86
2018-09-26T00:29:19.601Z,930.84
2018-09-26T00:30:19.638Z,930.84
2018-09-26T00:31:19.615Z,930.79
2018-09-26T00:32:19.825Z,930.78
2018-09-26T00:33:19.679Z,930.83
2018-09-26T00:34:19.664Z,930.79
2018-09-26T00:35:19.682Z,930.78
2018-09-26T00:36:19.758Z,930.79
2018-09-26T00:37:19.746Z,930.78
2018-09-26T00:38:19.727Z,930.75
2018-09-26T00:39:19.753Z,930.74
2018-09-26T00:40:19.734Z,930.76
2018-09-26T00:41:19.762Z,930.73
2018-09-26T00:42:19.822Z,930.72
2018-09-26T00:43:19.781Z,930.71
2018-09-26T00:44:19.829Z,930.75
2018-09-26T00:45:19.814Z,930.70
2018-09-26T00:46:19.859Z,930.70
2018-09-26T00:47:20.005Z,930.67
2018-09-26T00:48:19.878Z,930.66
2018-09-26T00:49:19.899Z,930.66
2018-09-26T00:50:19.889Z,930.71
2018-09-26T00:51:19.912Z,930.69
2018-09-26T00:52:20.005Z,930.74
2018-09-26T00:53:19.926Z,930.75
2018-09-26T00:54:19.955Z,930.77
2018-09-26T00:55:19.960Z,930.79
2018-09-26T00:56:19.982Z,930.82
2018-09-26T00:57:20.037Z,930.78
2018-09-26T00:58:20.181Z,930.80
2018-09-26T00:59:20.019Z,930.82
2018-09-26T01:00:20.165Z,930.76
2018-09-26T01:01:20.044Z,930.78
2018-09-26T01:02:20.052Z,930.78
2018-09-26T01:03:20.086Z,930.81
2018-09-26T01:04:20.146Z,930.84
2018-09-26T01:05:20.126Z,930.89
2018-09-26T01:06:20.140Z,930.86
2018-09-26T01:07:20.192Z,930.90
2018-09-26T01:08:20.185Z,930.94
2018-09-26T01:09:20.310Z,930.91
2018-09-26T01:10:20.184Z,930.90
2018-09-26T01:11:20.196Z,930.90
2018-09-26T01:12:20.214Z,930.95
2018-09-26T01:13:20.353Z,930.93
2018-09-26T01:14:20.461Z,930.95
2018-09-26T01:15:20.253Z,930.96
2018-09-26T01:16:20.274Z,930.99
2018-09-26T01:17:20.407Z,930.98
2018-09-26T01:18:20.421Z,931.03
2018-09-26T01:19:20.464Z,931.03
2018-09-26T01:20:20.349Z,931.02
2018-09-26T01:21:20.349Z,931.07
2018-09-26T01:22:20.362Z,931.08
2018-09-26T01:23:20.370Z,931.09
2018-09-26T01:24:20.560Z,931.12
2018-09-26T01:25:20.526Z,931.14
2018-09-26T01:26:20.403Z,931.15
2018-09-26T01:27:20.429Z,931.16
2018-09-26T01:28:20.436Z,931.14
2018-09-26T01:29:20.604Z,931.19
2018-09-26T01:30:20.478Z,931.17
2018-09-26T01:31:20.609Z,931.20
2018-09-26T01:33:20.519Z,931.17
2018-09-26T01:34:20.806Z,931.23
2018-09-26T01:35:20.546Z,931.19
2018-09-26T01:36:20.688Z,931.26
2018-09-26T01:37:20.705Z,931.24
2018-09-26T01:38:20.716Z,931.26
2018-09-26T01:39:20.652Z,931.26
2018-09-26T01:40:20.744Z,931.23
2018-09-26T01:41:20.688Z,931.24
2018-09-26T01:42:20.773Z,931.27
2018-09-26T01:43:20.706Z,931.23
2018-09-26T01:44:20.838Z,931.21
2018-09-26T01:45:20.702Z,931.23
2018-09-26T01:46:20.834Z,931.19
2018-09-26T01:47:20.737Z,931.21
2018-09-26T01:48:20.771Z,931.18
2018-09-26T01:49:20.896Z,931.21
2018-09-26T01:50:20.765Z,931.15
2018-09-26T01:51:20.908Z,931.17
2018-09-26T01:52:20.797Z,931.16
2018-09-26T01:53:20.937Z,931.08
2018-09-26T01:54:21.097Z,931.13
2018-09-26T01:55:20.963Z,931.16
2018-09-26T01:56:20.980Z,931.14
2018-09-26T01:57:20.931Z,931.11
2018-09-26T01:58:20.897Z,931.11
2018-09-26T01:59:21.175Z,931.05
2018-09-26T02:00:20.931Z,931.06
2018-09-26T02:01:21.050Z,931.01
2018-09-26T02:02:20.950Z,931.01
2018-09-26T02:03:21.087Z,930.93
2018-09-26T02:04:21.097Z,930.95
2018-09-26T02:05:21.097Z,930.95
2018-09-26T02:06:21.009Z,930.98
2018-09-26T02:07:21.033Z,930.94
2018-09-26T02:08:21.076Z,930.97
2018-09-26T02:09:21.084Z,930.97
2018-09-26T02:10:21.237Z,930.93
2018-09-26T02:11:21.188Z,930.87
2018-09-26T02:12:21.090Z,930.88
2018-09-26T02:13:21.115Z,930.85
2018-09-26T02:14:21.242Z,930.81
2018-09-26T02:15:21.258Z,930.76
2018-09-26T02:16:21.427Z,930.74
2018-09-26T02:17:21.288Z,930.74
2018-09-26T02:18:21.301Z,930.73
2018-09-26T02:19:21.188Z,930.70
2018-09-26T02:20:21.203Z,930.70
2018-09-26T02:21:21.365Z,930.75
2018-09-26T02:22:21.240Z,930.73
2018-09-26T02:23:21.374Z,930.74
2018-09-26T02:24:21.269Z,930.79
2018-09-26T02:25:21.278Z,930.81
2018-09-26T02:26:21.357Z,930.75
2018-09-26T02:27:21.432Z,930.75
2018-09-26T02:28:21.353Z,930.74
2018-09-26T02:29:21.328Z,930.74
2018-09-26T02:30:21.622Z,930.73
2018-09-26T02:31:21.368Z,930.73
2018-09-26T02:32:21.379Z,930.74
2018-09-26T02:33:21.402Z,930.74
2018-09-26T02:34:21.415Z,930.75
2018-09-26T02:35:21.578Z,930.73
2018-09-26T02:36:21.489Z,930.72
2018-09-26T02:37:21.456Z,930.64
2018-09-26T02:38:21.475Z,930.63
2018-09-26T02:39:21.609Z,930.69
2018-09-26T02:40:21.718Z,930.64
2018-09-26T02:41:21.518Z,930.60
2018-09-26T02:42:21.531Z,930.62
2018-09-26T02:43:21.541Z,930.59
2018-09-26T02:44:21.566Z,930.58
2018-09-26T02:45:21.724Z,930.55
2018-09-26T02:46:21.591Z,930.51
2018-09-26T02:47:21.590Z,930.59
2018-09-26T02:48:21.612Z,930.53
2018-09-26T02:49:21.617Z,930.54
2018-09-26T02:50:21.920Z,930.52
2018-09-26T02:51:21.702Z,930.56
2018-09-26T02:52:21.792Z,930.54
2018-09-26T02:53:21.699Z,930.50
2018-09-26T02:54:21.703Z,930.54
2018-09-26T02:55:21.870Z,930.54
2018-09-26T02:56:21.861Z,930.54
2018-09-26T02:57:21.873Z,930.52
2018-09-26T02:58:21.754Z,930.50
2018-09-26T02:59:21.781Z,930.49
2018-09-26T03:00:21.945Z,930.51
2018-09-26T03:01:21.805Z,930.55
2018-09-26T03:02:21.821Z,930.58
2018-09-26T03:03:21.839Z,930.60
2018-09-26T03:04:21.843Z,930.61
2018-09-26T03:05:22.149Z,930.60
2018-09-26T03:06:21.906Z,930.64
2018-09-26T03:07:22.020Z,930.66
2018-09-26T03:08:21.919Z,930.64
2018-09-26T03:09:22.046Z,930.65
2018-09-26T03:10:22.095Z,930.65
2018-09-26T03:11:21.959Z,930.64
2018-09-26T03:12:22.088Z,930.63
2018-09-26T03:13:22.105Z,930.61
2018-09-26T03:14:21.983Z,930.63
2018-09-26T03:15:22.283Z,930.62
2018-09-26T03:16:22.022Z,930.61
2018-09-26T03:17:22.054Z,930.58
2018-09-26T03:18:22.083Z,930.57
2018-09-26T03:19:22.188Z,930.58
2018-09-26T03:20:22.136Z,930.54
2018-09-26T03:21:22.120Z,930.56
2018-09-26T03:22:22.105Z,930.57
2018-09-26T03:23:22.124Z,930.57
2018-09-26T03:24:22.184Z,930.56
2018-09-26T03:25:22.329Z,930.56
2018-09-26T03:26:22.166Z,930.56
2018-09-26T03:27:22.350Z,930.55
2018-09-26T03:28:22.215Z,930.55
2018-09-26T03:29:22.212Z,930.50
2018-09-26T03:30:22.214Z,930.51
2018-09-26T03:31:22.248Z,930.56
2018-09-26T03:32:22.391Z,930.52
2018-09-26T03:33:22.269Z,930.51
2018-09-26T03:34:22.409Z,930.53
2018-09-26T03:35:22.573Z,930.52
2018-09-26T03:36:22.315Z,930.50
2018-09-26T03:37:22.343Z,930.48
2018-09-26T03:38:22.471Z,930.50
2018-09-26T03:39:22.362Z,930.49
2018-09-26T03:40:22.655Z,930.47
2018-09-26T03:41:22.376Z,930.44
2018-09-26T03:42:22.396Z,930.42
2018-09-26T03:43:22.537Z,930.35
2018-09-26T03:44:22.437Z,930.36
2018-09-26T03:45:22.596Z,930.35
2018-09-26T03:46:22.496Z,930.35
2018-09-26T03:47:22.473Z,930.30
2018-09-26T03:48:22.614Z,930.28
2018-09-26T03:49:22.504Z,930.28
2018-09-26T03:50:22.667Z,930.25
2018-09-26T03:51:22.533Z,930.29
2018-09-26T03:52:22.542Z,930.30
2018-09-26T03:53:22.578Z,930.31
2018-09-26T03:54:22.698Z,930.27
2018-09-26T03:55:22.767Z,930.27
2018-09-26T03:56:22.616Z,930.27
2018-09-26T03:57:22.625Z,930.23
2018-09-26T03:58:22.630Z,930.18
2018-09-26T03:59:22.649Z,930.20
2018-09-26T04:00:22.941Z,930.19
2018-09-26T04:01:22.675Z,930.19
2018-09-26T04:02:22.819Z,930.23
2018-09-26T04:03:22.835Z,930.22
2018-09-26T04:04:22.716Z,930.23
2018-09-26T04:05:22.909Z,930.22
2018-09-26T04:06:22.750Z,930.17
2018-09-26T04:07:22.761Z,930.16
2018-09-26T04:08:22.792Z,930.17
2018-09-26T04:09:22.914Z,930.07
2018-09-26T04:10:23.094Z,930.08
2018-09-26T04:11:22.825Z,930.00
2018-09-26T04:12:22.965Z,930.00
2018-09-26T04:13:22.981Z,929.99
2018-09-26T04:14:22.987Z,929.94
2018-09-26T04:15:23.157Z,929.92
2018-09-26T04:16:22.885Z,929.89
2018-09-26T04:17:22.926Z,929.90
2018-09-26T04:18:22.937Z,929.90
2018-09-26T04:19:22.926Z,929.93
2018-09-26T04:20:23.144Z,929.93
2018-09-26T04:21:23.019Z,929.93
2018-09-26T04:22:22.983Z,929.95
2018-09-26T04:23:22.994Z,930.00
2018-09-26T04:24:23.030Z,929.96
2018-09-26T04:25:23.090Z,930.01
2018-09-26T04:26:23.145Z,929.99
2018-09-26T04:27:23.274Z,930.00
2018-09-26T04:28:23.199Z,929.97
2018-09-26T04:29:23.215Z,929.92
2018-09-26T04:30:23.281Z,929.94
2018-09-26T04:31:23.236Z,929.93
2018-09-26T04:32:23.181Z,929.92
2018-09-26T04:33:23.280Z,929.92
2018-09-26T04:34:23.166Z,929.90
2018-09-26T04:35:23.311Z,929.90
2018-09-26T04:36:23.184Z,929.86
2018-09-26T04:37:23.208Z,929.89
2018-09-26T04:38:23.233Z,929.88
2018-09-26T04:39:23.351Z,929.85
2018-09-26T04:40:23.341Z,929.84
2018-09-26T04:41:23.390Z,929.88
2018-09-26T04:42:23.400Z,929.90
2018-09-26T04:43:23.605Z,929.90
2018-09-26T04:44:23.315Z,929.95
2018-09-26T04:45:23.332Z,929.94
2018-09-26T04:46:23.332Z,929.99
2018-09-26T04:47:23.364Z,929.99
2018-09-26T04:48:23.514Z,929.94
2018-09-26T04:49:23.504Z,930.00
2018-09-26T04:50:23.430Z,930.00
2018-09-26T04:51:23.445Z,929.98
2018-09-26T04:52:23.542Z,929.99
2018-09-26T04:53:23.714Z,929.97
2018-09-26T04:54:23.453Z,929.95
2018-09-26T04:55:23.589Z,929.92
2018-09-26T04:56:23.487Z,929.88
2018-09-26T04:57:23.506Z,929.86
2018-09-26T04:58:23.785Z,929.82
2018-09-26T04:59:23.647Z,929.83
2018-09-26T05:00:23.665Z,929.80
2018-09-26T05:01:23.547Z,929.79
2018-09-26T05:02:23.567Z,929.79
2018-09-26T05:03:23.731Z,929.75
2018-09-26T05:04:23.595Z,929.72
2018-09-26T05:05:23.615Z,929.73
2018-09-26T05:06:23.659Z,929.69
2018-09-26T05:07:23.652Z,929.66
2018-09-26T05:08:23.845Z,929.68
2018-09-26T05:09:23.659Z,929.69
2018-09-26T05:10:23.804Z,929.67
2018-09-26T05:11:23.696Z,929.65
2018-09-26T05:12:23.834Z,929.62
2018-09-26T05:13:23.784Z,929.62
2018-09-26T05:14:23.867Z,929.63
2018-09-26T05:15:23.907Z,929.57
2018-09-26T05:16:23.766Z,929.58
2018-09-26T05:17:23.908Z,929.57
2018-09-26T05:18:23.799Z,929.57
2018-09-26T05:19:23.940Z,929.56
2018-09-26T05:20:23.982Z,929.57
2018-09-26T05:21:23.859Z,929.55
2018-09-26T05:22:23.856Z,929.59
2018-09-26T05:23:23.881Z,929.62
2018-09-26T05:24:23.881Z,929.63
2018-09-26T05:25:24.175Z,929.61
2018-09-26T05:26:24.038Z,929.64
2018-09-26T05:27:24.052Z,929.61
2018-09-26T05:28:23.945Z,929.62
2018-09-26T05:29:23.961Z,929.62
2018-09-26T05:30:24.180Z,929.58
2018-09-26T05:31:23.987Z,929.57
2018-09-26T05:32:24.123Z,929.60
2018-09-26T05:33:24.024Z,929.62
2018-09-26T05:34:24.157Z,929.59
2018-09-26T05:35:24.198Z,929.63
2018-09-26T05:36:24.055Z,929.70
2018-09-26T05:37:24.080Z,929.70
2018-09-26T05:38:24.121Z,929.75
2018-09-26T05:39:24.226Z,929.71
2018-09-26T05:40:24.113Z,929.73
2018-09-26T05:41:24.132Z,929.75
2018-09-26T05:42:24.188Z,929.74
2018-09-26T05:43:24.162Z,929.71
2018-09-26T05:44:24.169Z,929.77
2018-09-26T05:45:24.211Z,929.72
2018-09-26T05:46:24.209Z,929.76
2018-09-26T05:47:24.269Z,929.75
2018-09-26T05:48:24.357Z,929.77
2018-09-26T05:49:24.255Z,929.76
2018-09-26T05:50:24.267Z,929.72
2018-09-26T05:51:24.284Z,929.75
2018-09-26T05:52:24.571Z,929.76
2018-09-26T05:53:24.365Z,929.75
2018-09-26T05:54:24.318Z,929.77
2018-09-26T05:55:24.460Z,929.71
2018-09-26T05:56:24.354Z,929.75
2018-09-26T05:57:24.638Z,929.72
2018-09-26T05:58:24.382Z,929.71
2018-09-26T05:59:24.523Z,929.69
2018-09-26T06:00:24.528Z,929.67
2018-09-26T06:01:24.427Z,929.65
2018-09-26T06:02:24.630Z,929.61
2018-09-26T06:03:24.461Z,929.61
2018-09-26T06:04:24.593Z,929.54
2018-09-26T06:05:24.612Z,929.56
2018-09-26T06:06:24.614Z,929.53
2018-09-26T06:07:24.660Z,929.53
2018-09-26T06:08:24.645Z,929.51
2018-09-26T06:09:24.525Z,929.54
2018-09-26T06:10:24.679Z,929.52
2018-09-26T06:11:24.568Z,929.52
2018-09-26T06:12:24.732Z,929.57
2018-09-26T06:13:24.594Z,929.54
2018-09-26T06:14:24.640Z,929.50
2018-09-26T06:15:24.748Z,929.51
2018-09-26T06:16:24.762Z,929.50
2018-09-26T06:17:24.806Z,929.49
2018-09-26T06:18:24.788Z,929.45
2018-09-26T06:19:24.682Z,929.46
2018-09-26T06:20:24.733Z,929.37
2018-09-26T06:21:24.710Z,929.34
2018-09-26T06:22:24.868Z,929.29
2018-09-26T06:23:24.739Z,929.25
2018-09-26T06:24:24.750Z,929.23
2018-09-26T06:25:24.892Z,929.18
2018-09-26T06:26:24.777Z,929.20
2018-09-26T06:27:25.069Z,929.13
2018-09-26T06:28:24.808Z,929.10
2018-09-26T06:29:24.827Z,929.05
2018-09-26T06:30:24.851Z,929.03
2018-09-26T06:31:24.895Z,929.02
2018-09-26T06:32:25.039Z,929.01
2018-09-26T06:33:24.882Z,929.00
2018-09-26T06:34:24.894Z,928.98
2018-09-26T06:35:25.031Z,928.99
2018-09-26T06:36:25.078Z,929.00
2018-09-26T06:37:24.935Z,929.03
2018-09-26T06:38:24.953Z,929.05
2018-09-26T06:39:25.097Z,929.03
2018-09-26T06:40:25.086Z,929.02
2018-09-26T06:41:25.120Z,929.02
2018-09-26T06:42:25.137Z,929.03
2018-09-26T06:43:25.299Z,929.02
2018-09-26T06:44:25.168Z,929.02
2018-09-26T06:45:25.188Z,928.99
2018-09-26T06:46:25.064Z,929.01
2018-09-26T06:47:25.107Z,929.03
2018-09-26T06:48:25.104Z,929.02
2018-09-26T06:49:25.237Z,929.00
2018-09-26T06:50:25.192Z,928.99
2018-09-26T06:51:25.417Z,929.03
2018-09-26T06:52:25.191Z,929.03
2018-09-26T06:53:25.165Z,929.05
2018-09-26T06:54:25.184Z,929.06
2018-09-26T06:55:25.217Z,929.05
2018-09-26T06:56:25.365Z,929.08
2018-09-26T06:57:25.351Z,929.06
2018-09-26T06:58:25.365Z,929.08
2018-09-26T06:59:25.380Z,929.10
2018-09-26T07:00:25.410Z,929.10
2018-09-26T07:01:25.557Z,929.14
2018-09-26T07:02:25.430Z,929.15
2018-09-26T07:03:25.440Z,929.17
2018-09-26T07:04:25.322Z,929.14
2018-09-26T07:05:25.379Z,929.18
2018-09-26T07:06:25.506Z,929.17
2018-09-26T07:07:25.386Z,929.18
2018-09-26T07:08:25.512Z,929.16
2018-09-26T07:09:25.522Z,929.12
2018-09-26T07:10:25.406Z,929.12
2018-09-26T07:11:25.571Z,929.09
2018-09-26T07:12:25.444Z,929.11
2018-09-26T07:13:25.453Z,929.10
2018-09-26T07:14:25.471Z,929.13
2018-09-26T07:15:25.610Z,929.13
2018-09-26T07:16:25.651Z,929.13
2018-09-26T07:17:25.530Z,929.14
2018-09-26T07:18:25.523Z,929.14
2018-09-26T07:19:25.556Z,929.18
2018-09-26T07:20:25.684Z,929.16
2018-09-26T07:21:25.726Z,929.18
2018-09-26T07:22:25.619Z,929.16
2018-09-26T07:23:25.722Z,929.17
2018-09-26T07:24:25.613Z,929.15
2018-09-26T07:25:25.636Z,929.13
2018-09-26T07:26:25.688Z,929.10
2018-09-26T07:27:25.670Z,929.14
2018-09-26T07:28:25.800Z,929.11
2018-09-26T07:29:25.681Z,929.13
2018-09-26T07:30:25.824Z,929.06
2018-09-26T07:31:26.037Z,929.10
2018-09-26T07:32:25.726Z,929.07
2018-09-26T07:33:25.754Z,929.07
2018-09-26T07:34:25.754Z,929.03
2018-09-26T07:35:25.900Z,929.01
2018-09-26T07:36:25.928Z,928.99
2018-09-26T07:37:25.927Z,929.01
2018-09-26T07:38:25.851Z,928.99
2018-09-26T07:39:25.822Z,928.93
2018-09-26T07:40:25.861Z,928.95
2018-09-26T07:41:25.978Z,928.94
2018-09-26T07:42:25.995Z,928.98
2018-09-26T07:43:26.164Z,929.00
2018-09-26T07:44:25.909Z,929.05
2018-09-26T07:45:26.108Z,929.11
2018-09-26T07:46:25.923Z,929.10
2018-09-26T07:47:26.065Z,929.15
2018-09-26T07:48:26.112Z,929.16
2018-09-26T07:49:25.971Z,929.20
2018-09-26T07:50:25.996Z,929.20
2018-09-26T07:51:26.126Z,929.23
2018-09-26T07:52:26.019Z,929.22
2018-09-26T07:53:26.179Z,929.24
2018-09-26T07:54:26.173Z,929.25
2018-09-26T07:55:26.062Z,929.24
2018-09-26T07:56:26.203Z,929.26
2018-09-26T07:57:26.091Z,929.22
2018-09-26T07:58:26.265Z,929.21
2018-09-26T07:59:26.238Z,929.24
2018-09-26T08:00:26.137Z,929.22
2018-09-26T08:01:26.152Z,929.21
2018-09-26T08:02:26.205Z,929.17
2018-09-26T08:03:26.179Z,929.19
2018-09-26T08:04:26.231Z,929.20
2018-09-26T08:05:26.331Z,929.21
2018-09-26T08:06:26.219Z,929.22
2018-09-26T08:07:26.236Z,929.20
2018-09-26T08:08:26.390Z,929.23
2018-09-26T08:09:26.390Z,929.24
2018-09-26T08:10:26.397Z,929.21
2018-09-26T08:11:26.390Z,929.24
2018-09-26T08:12:26.300Z,929.21
2018-09-26T08:13:26.434Z,929.22
2018-09-26T08:14:26.463Z,929.22
2018-09-26T08:15:26.343Z,929.29
2018-09-26T08:16:26.365Z,929.24
2018-09-26T08:17:26.501Z,929.27
2018-09-26T08:18:26.606Z,929.28
2018-09-26T08:19:26.447Z,929.28
2018-09-26T08:20:26.412Z,929.27
2018-09-26T08:21:26.428Z,929.27
2018-09-26T08:22:26.574Z,929.32
2018-09-26T08:23:26.625Z,929.33
2018-09-26T08:24:26.604Z,929.33
2018-09-26T08:25:26.549Z,929.38
2018-09-26T08:26:26.511Z,929.33
2018-09-26T08:27:26.641Z,929.36
2018-09-26T08:28:26.659Z,929.36
2018-09-26T08:29:26.697Z,929.40
2018-09-26T08:30:26.570Z,929.34
2018-09-26T08:31:26.705Z,929.37
2018-09-26T08:32:26.597Z,929.38
2018-09-26T08:33:26.601Z,929.39
2018-09-26T08:34:26.763Z,929.41
2018-09-26T08:35:26.766Z,929.44
2018-09-26T08:36:26.637Z,929.45
2018-09-26T08:37:26.788Z,929.48
2018-09-26T08:38:26.805Z,929.52
2018-09-26T08:39:26.963Z,929.52
2018-09-26T08:40:26.713Z,929.49
2018-09-26T08:41:26.716Z,929.50
2018-09-26T08:42:26.755Z,929.47
2018-09-26T08:43:26.752Z,929.45
2018-09-26T08:44:31.599Z,929.44
2018-09-26T08:45:26.789Z,929.47
2018-09-26T08:46:26.778Z,929.50
2018-09-26T08:47:26.940Z,929.49
2018-09-26T08:48:26.821Z,929.48
2018-09-26T08:49:26.887Z,929.51
2018-09-26T08:50:26.845Z,929.53
2018-09-26T08:51:26.866Z,929.55
2018-09-26T08:52:26.884Z,929.52
2018-09-26T08:53:27.024Z,929.52
2018-09-26T08:54:26.951Z,929.54
2018-09-26T08:55:27.049Z,929.55
2018-09-26T08:56:27.061Z,929.52
2018-09-26T08:57:26.944Z,929.53
2018-09-26T08:58:26.965Z,929.53
2018-09-26T08:59:27.259Z,929.53
2018-09-26T09:00:27.012Z,929.57
2018-09-26T09:01:27.025Z,929.57
2018-09-26T09:02:27.065Z,929.57
2018-09-26T09:03:27.049Z,929.57
2018-09-26T09:04:27.104Z,929.57
2018-09-26T09:05:27.096Z,929.54
2018-09-26T09:06:27.081Z,929.53
2018-09-26T09:07:27.218Z,929.56
2018-09-26T09:08:27.149Z,929.54
2018-09-26T09:09:27.400Z,929.57
2018-09-26T09:10:27.265Z,929.59
2018-09-26T09:11:27.179Z,929.59
2018-09-26T09:12:27.172Z,929.62
2018-09-26T09:13:27.178Z,929.59
2018-09-26T09:14:27.492Z,929.58
2018-09-26T09:15:27.213Z,929.56
2018-09-26T09:16:27.352Z,929.58
2018-09-26T09:17:27.232Z,929.57
2018-09-26T09:18:27.265Z,929.55
2018-09-26T09:19:27.269Z,929.54
2018-09-26T09:20:27.286Z,929.48
2018-09-26T09:21:27.426Z,929.50
2018-09-26T09:22:27.440Z,929.48
2018-09-26T09:23:27.391Z,929.46
2018-09-26T09:24:27.344Z,929.47
2018-09-26T09:25:27.489Z,929.45
2018-09-26T09:26:27.497Z,929.47
2018-09-26T09:27:27.546Z,929.39
2018-09-26T09:28:27.505Z,929.39
2018-09-26T09:29:27.540Z,929.30
2018-09-26T09:30:27.558Z,929.35
2018-09-26T09:31:27.573Z,929.35
2018-09-26T09:32:27.588Z,929.35
2018-09-26T09:33:27.521Z,929.32
2018-09-26T09:34:27.616Z,929.34
2018-09-26T09:35:27.504Z,929.33
2018-09-26T09:36:27.734Z,929.38
2018-09-26T09:37:27.529Z,929.35
2018-09-26T09:38:27.555Z,929.38
2018-09-26T09:39:27.683Z,929.42
2018-09-26T09:40:27.583Z,929.46
2018-09-26T09:41:27.753Z,929.48
2018-09-26T09:42:27.612Z,929.51
2018-09-26T09:43:27.607Z,929.54
2018-09-26T09:44:27.686Z,929.54
2018-09-26T09:45:27.775Z,929.53
2018-09-26T09:46:27.792Z,929.51
2018-09-26T09:47:27.695Z,929.56
2018-09-26T09:48:27.696Z,929.57
2018-09-26T09:49:27.867Z,929.60
2018-09-26T09:50:27.728Z,929.60
2018-09-26T09:51:27.774Z,929.60
2018-09-26T09:52:27.769Z,929.64
2018-09-26T09:53:27.787Z,929.62
2018-09-26T09:54:27.972Z,929.61
2018-09-26T09:55:27.807Z,929.65
2018-09-26T09:56:27.943Z,929.64
2018-09-26T09:57:28.002Z,929.66
2018-09-26T09:58:27.872Z,929.65
2018-09-26T09:59:27.879Z,929.66
2018-09-26T10:00:27.891Z,929.72
2018-09-26T10:01:27.921Z,929.68
2018-09-26T10:02:28.291Z,929.68
2018-09-26T10:03:27.940Z,929.72
2018-09-26T10:04:27.961Z,929.73
2018-09-26T10:05:28.093Z,929.71
2018-09-26T10:06:27.984Z,929.70
2018-09-26T10:07:28.192Z,929.72
2018-09-26T10:08:28.017Z,929.67
2018-09-26T10:09:28.056Z,929.72
2018-09-26T10:10:28.170Z,929.69
2018-09-26T10:11:28.061Z,929.71
2018-09-26T10:12:28.176Z,929.67
2018-09-26T10:13:28.226Z,929.68
2018-09-26T10:14:28.249Z,929.60
2018-09-26T10:15:28.136Z,929.67
2018-09-26T10:16:28.276Z,929.67
2018-09-26T10:17:28.266Z,929.68
2018-09-26T10:18:28.187Z,929.64
2018-09-26T10:19:28.328Z,929.68
2018-09-26T10:20:28.224Z,929.68
2018-09-26T10:21:28.242Z,929.73
2018-09-26T10:22:28.306Z,929.65
2018-09-26T10:23:28.281Z,929.70
2018-09-26T10:24:28.287Z,929.72
2018-09-26T10:25:28.316Z,929.73
2018-09-26T10:26:28.354Z,929.73
2018-09-26T10:27:28.501Z,929.72
2018-09-26T10:28:28.379Z,929.73
2018-09-26T10:29:28.518Z,929.75
2018-09-26T10:30:28.529Z,929.74
2018-09-26T10:31:28.447Z,929.73
2018-09-26T10:32:28.573Z,929.80
2018-09-26T10:33:28.484Z,929.85
2018-09-26T10:34:28.490Z,929.88
2018-09-26T10:35:28.518Z,929.91
2018-09-26T10:36:28.652Z,929.91
2018-09-26T10:37:28.588Z,929.97
2018-09-26T10:38:28.563Z,929.97
2018-09-26T10:39:28.703Z,930.01
2018-09-26T10:40:28.593Z,930.01
2018-09-26T10:41:28.628Z,930.04
2018-09-26T10:42:28.820Z,930.05
2018-09-26T10:43:28.660Z,930.03
2018-09-26T10:44:28.809Z,930.04
2018-09-26T10:45:28.722Z,930.05
2018-09-26T10:46:28.888Z,930.06
2018-09-26T10:47:28.793Z,930.05
2018-09-26T10:48:28.885Z,930.02
2018-09-26T10:49:28.905Z,929.99
2018-09-26T10:50:28.976Z,929.95
2018-09-26T10:51:28.831Z,930.01
2018-09-26T10:52:28.845Z,929.97
2018-09-26T10:53:28.910Z,929.93
2018-09-26T10:54:28.904Z,929.94
2018-09-26T10:55:29.184Z,929.92
2018-09-26T10:56:29.119Z,929.91
2018-09-26T10:57:28.953Z,929.92
2018-09-26T10:58:28.985Z,929.90
2018-09-26T10:59:29.015Z,929.93
2018-09-26T11:00:29.120Z,929.96
2018-09-26T11:01:29.157Z,930.00
2018-09-26T11:02:29.194Z,929.99
2018-09-26T11:03:29.074Z,930.00
2018-09-26T11:04:29.229Z,930.03
2018-09-26T11:05:29.276Z,929.98
2018-09-26T11:06:29.143Z,930.01
2018-09-26T11:07:29.292Z,930.04
2018-09-26T11:08:29.309Z,930.03
2018-09-26T11:09:29.214Z,930.02
2018-09-26T11:10:29.320Z,930.05
2018-09-26T11:11:29.373Z,930.02
2018-09-26T11:12:29.348Z,930.05
2018-09-26T11:13:29.303Z,930.03
2018-09-26T11:14:29.328Z,930.03
2018-09-26T11:15:29.571Z,930.05
2018-09-26T11:16:29.488Z,930.03
2018-09-26T11:17:29.400Z,929.98
2018-09-26T11:18:29.539Z,930.01
2018-09-26T11:19:29.445Z,930.00
2018-09-26T11:20:29.605Z,929.93
2018-09-26T11:21:29.601Z,929.99
2018-09-26T11:22:29.502Z,929.96
2018-09-26T11:23:29.524Z,929.90
2018-09-26T11:24:29.540Z,929.91
2018-09-26T11:25:29.694Z,929.89
2018-09-26T11:26:29.767Z,929.84
2018-09-26T11:27:29.736Z,929.83
2018-09-26T11:28:29.659Z,929.83
2018-09-26T11:29:29.665Z,929.82
2018-09-26T11:30:29.836Z,929.79
2018-09-26T11:31:29.705Z,929.73
2018-09-26T11:32:29.747Z,929.80
2018-09-26T11:33:29.821Z,929.74
2018-09-26T11:34:29.773Z,929.81
2018-09-26T11:35:29.942Z,929.81
2018-09-26T11:36:29.829Z,929.89
2018-09-26T11:37:29.845Z,929.78
2018-09-26T11:38:29.989Z,929.78
2018-09-26T11:39:29.882Z,929.74
2018-09-26T11:40:29.955Z,929.73
2018-09-26T11:41:29.967Z,929.76
2018-09-26T11:42:30.076Z,929.80
2018-09-26T11:43:29.975Z,929.70
2018-09-26T11:44:30.124Z,929.74
2018-09-26T11:45:30.176Z,929.79
2018-09-26T11:46:30.035Z,929.73
2018-09-26T11:47:30.065Z,929.70
2018-09-26T11:48:30.198Z,929.73
2018-09-26T11:49:30.094Z,929.67
2018-09-26T11:50:30.162Z,929.63
2018-09-26T11:51:30.262Z,929.66
2018-09-26T11:52:30.285Z,929.66
2018-09-26T11:53:30.309Z,929.58
2018-09-26T11:54:30.203Z,929.56
2018-09-26T11:55:30.393Z,929.59
2018-09-26T11:56:30.327Z,929.58
2018-09-26T11:57:30.411Z,929.64
2018-09-26T11:58:30.369Z,929.55
2018-09-26T11:59:30.310Z,929.58
2018-09-26T12:00:30.347Z,929.60
2018-09-26T12:01:30.363Z,929.58
2018-09-26T12:02:30.656Z,929.54
2018-09-26T12:03:30.579Z,929.48
2018-09-26T12:04:30.437Z,929.51
2018-09-26T12:05:30.552Z,929.57
2018-09-26T12:06:30.576Z,929.56
2018-09-26T12:08:30.764Z,929.51
2018-09-26T12:09:30.637Z,929.55
2018-09-26T12:10:30.535Z,929.61
2018-09-26T12:11:30.679Z,929.73
2018-09-26T12:12:30.586Z,929.72
2018-09-26T12:13:30.872Z,929.91
2018-09-26T12:14:30.742Z,929.62
2018-09-26T12:15:30.631Z,929.61
2018-09-26T12:16:30.653Z,929.72
2018-09-26T12:17:30.673Z,929.88
2018-09-26T12:18:30.921Z,930.00
2018-09-26T12:19:30.721Z,929.87
2018-09-26T12:20:30.739Z,930.30
2018-09-26T12:21:30.931Z,929.89
2018-09-26T12:22:30.970Z,930.59
2018-09-26T12:23:31.082Z,930.54
2018-09-26T12:24:30.834Z,930.31
2018-09-26T12:25:30.849Z,930.56
2018-09-26T12:26:30.937Z,930.51
2018-09-26T12:27:31.019Z,930.57
2018-09-26T12:28:30.971Z,930.51
2018-09-26T12:29:31.071Z,930.06
2018-09-26T12:30:30.977Z,929.68